sensor_id;sensor_type;location;lat;lon;timestamp;P1;durP1;ratioP1;P2;durP2;ratioP2
15356;SDS011;7778;48.792;9.260;2023-02-28T00:01:48;1.55;;;1.23;;
15356;SDS011;7778;48.792;9.260;2023-02-28T00:04:34;4.45;;;1.85;;
15356;SDS011;7778;48.792;9.260;2023-02-28T00:07:20;5.28;;;2.10;;
15356;SDS011;7778;48.792;9.260;2023-02-28T00:10:06;1.80;;;1.25;;
15356;SDS011;7778;48.792;9.260;2023-02-28T00:12:55;4.60;;;1.90;;
15356;SDS011;7778;48.792;9.260;2023-02-28T00:15:45;3.20;;;1.70;;
15356;SDS011;7778;48.792;9.260;2023-02-28T00:18:31;4.93;;;1.90;;
15356;SDS011;7778;48.792;9.260;2023-02-28T00:21:17;3.55;;;1.75;;
15356;SDS011;7778;48.792;9.260;2023-02-28T00:24:06;1.77;;;1.63;;
15356;SDS011;7778;48.792;9.260;2023-02-28T00:26:51;3.35;;;1.73;;
15356;SDS011;7778;48.792;9.260;2023-02-28T00:29:37;2.13;;;1.30;;
15356;SDS011;7778;48.792;9.260;2023-02-28T00:32:23;1.63;;;1.48;;
15356;SDS011;7778;48.792;9.260;2023-02-28T00:35:09;3.13;;;2.03;;
15356;SDS011;7778;48.792;9.260;2023-02-28T00:37:56;1.05;;;0.95;;
15356;SDS011;7778;48.792;9.260;2023-02-28T00:40:43;3.40;;;1.45;;
15356;SDS011;7778;48.792;9.260;2023-02-28T00:43:29;4.40;;;1.70;;
15356;SDS011;7778;48.792;9.260;2023-02-28T00:46:15;4.03;;;1.90;;
15356;SDS011;7778;48.792;9.260;2023-02-28T00:49:01;1.70;;;1.40;;
15356;SDS011;7778;48.792;9.260;2023-02-28T00:51:46;5.32;;;2.17;;
15356;SDS011;7778;48.792;9.260;2023-02-28T00:54:32;3.85;;;2.22;;
15356;SDS011;7778;48.792;9.260;2023-02-28T00:57:19;4.10;;;2.13;;
15356;SDS011;7778;48.792;9.260;2023-02-28T01:00:05;4.90;;;2.17;;
15356;SDS011;7778;48.792;9.260;2023-02-28T01:02:54;2.97;;;1.75;;
15356;SDS011;7778;48.792;9.260;2023-02-28T01:05:40;3.90;;;1.70;;
15356;SDS011;7778;48.792;9.260;2023-02-28T01:08:25;5.30;;;1.67;;
15356;SDS011;7778;48.792;9.260;2023-02-28T01:11:12;2.95;;;1.63;;
15356;SDS011;7778;48.792;9.260;2023-02-28T01:14:05;3.08;;;1.70;;
15356;SDS011;7778;48.792;9.260;2023-02-28T01:16:50;2.53;;;1.05;;
15356;SDS011;7778;48.792;9.260;2023-02-28T01:19:36;2.80;;;1.70;;
15356;SDS011;7778;48.792;9.260;2023-02-28T01:22:21;2.65;;;1.80;;
15356;SDS011;7778;48.792;9.260;2023-02-28T01:25:07;4.10;;;1.40;;
15356;SDS011;7778;48.792;9.260;2023-02-28T01:27:53;3.30;;;1.67;;
15356;SDS011;7778;48.792;9.260;2023-02-28T01:30:40;2.40;;;1.27;;
15356;SDS011;7778;48.792;9.260;2023-02-28T01:33:26;2.92;;;1.75;;
15356;SDS011;7778;48.792;9.260;2023-02-28T01:36:13;4.53;;;1.90;;
15356;SDS011;7778;48.792;9.260;2023-02-28T01:39:00;1.73;;;1.35;;
15356;SDS011;7778;48.792;9.260;2023-02-28T01:41:46;4.28;;;1.90;;
15356;SDS011;7778;48.792;9.260;2023-02-28T01:48:03;4.05;;;2.15;;
15356;SDS011;7778;48.792;9.260;2023-02-28T01:50:52;1.75;;;1.42;;
15356;SDS011;7778;48.792;9.260;2023-02-28T01:53:44;2.45;;;1.23;;
15356;SDS011;7778;48.792;9.260;2023-02-28T01:56:34;3.05;;;1.80;;
15356;SDS011;7778;48.792;9.260;2023-02-28T01:59:22;3.78;;;1.90;;
15356;SDS011;7778;48.792;9.260;2023-02-28T02:02:12;0.77;;;0.77;;
15356;SDS011;7778;48.792;9.260;2023-02-28T02:05:00;2.78;;;2.05;;
15356;SDS011;7778;48.792;9.260;2023-02-28T02:07:51;2.10;;;1.38;;
15356;SDS011;7778;48.792;9.260;2023-02-28T02:10:41;4.53;;;1.95;;
15356;SDS011;7778;48.792;9.260;2023-02-28T02:13:34;2.22;;;1.08;;
15356;SDS011;7778;48.792;9.260;2023-02-28T02:16:39;2.03;;;1.65;;
15356;SDS011;7778;48.792;9.260;2023-02-28T02:19:55;7.40;;;2.85;;
15356;SDS011;7778;48.792;9.260;2023-02-28T02:23:32;1.38;;;1.15;;
15356;SDS011;7778;48.792;9.260;2023-02-28T02:27:15;3.17;;;1.75;;
15356;SDS011;7778;48.792;9.260;2023-02-28T02:34:19;1.63;;;1.33;;
15356;SDS011;7778;48.792;9.260;2023-02-28T02:37:21;3.38;;;2.38;;
15356;SDS011;7778;48.792;9.260;2023-02-28T02:40:16;2.38;;;2.17;;
15356;SDS011;7778;48.792;9.260;2023-02-28T02:43:06;3.42;;;2.22;;
15356;SDS011;7778;48.792;9.260;2023-02-28T02:45:59;2.20;;;2.00;;
15356;SDS011;7778;48.792;9.260;2023-02-28T02:48:51;3.30;;;2.42;;
15356;SDS011;7778;48.792;9.260;2023-02-28T02:51:41;3.78;;;2.03;;
15356;SDS011;7778;48.792;9.260;2023-02-28T02:54:30;4.90;;;2.47;;
15356;SDS011;7778;48.792;9.260;2023-02-28T02:57:21;6.85;;;2.40;;
15356;SDS011;7778;48.792;9.260;2023-02-28T03:00:10;3.53;;;1.88;;
15356;SDS011;7778;48.792;9.260;2023-02-28T03:02:58;5.55;;;2.72;;
15356;SDS011;7778;48.792;9.260;2023-02-28T03:05:46;2.38;;;1.95;;
15356;SDS011;7778;48.792;9.260;2023-02-28T03:08:37;3.30;;;2.38;;
15356;SDS011;7778;48.792;9.260;2023-02-28T03:11:23;3.53;;;1.85;;
15356;SDS011;7778;48.792;9.260;2023-02-28T03:14:22;4.43;;;2.60;;
15356;SDS011;7778;48.792;9.260;2023-02-28T03:17:24;3.03;;;2.08;;
15356;SDS011;7778;48.792;9.260;2023-02-28T03:20:38;8.77;;;2.92;;
15356;SDS011;7778;48.792;9.260;2023-02-28T03:23:32;3.05;;;2.45;;
15356;SDS011;7778;48.792;9.260;2023-02-28T03:26:28;0.60;;;0.60;;
15356;SDS011;7778;48.792;9.260;2023-02-28T03:29:15;2.85;;;1.23;;
15356;SDS011;7778;48.792;9.260;2023-02-28T03:32:11;6.55;;;2.60;;
15356;SDS011;7778;48.792;9.260;2023-02-28T03:35:06;4.15;;;2.40;;
15356;SDS011;7778;48.792;9.260;2023-02-28T03:37:59;3.67;;;2.10;;
15356;SDS011;7778;48.792;9.260;2023-02-28T03:40:51;6.70;;;1.77;;
15356;SDS011;7778;48.792;9.260;2023-02-28T03:43:42;5.35;;;2.40;;
15356;SDS011;7778;48.792;9.260;2023-02-28T03:46:34;5.05;;;2.50;;
15356;SDS011;7778;48.792;9.260;2023-02-28T03:49:24;2.83;;;2.20;;
15356;SDS011;7778;48.792;9.260;2023-02-28T03:52:13;3.83;;;2.40;;
15356;SDS011;7778;48.792;9.260;2023-02-28T03:55:00;3.58;;;2.33;;
15356;SDS011;7778;48.792;9.260;2023-02-28T03:57:56;5.43;;;2.85;;
15356;SDS011;7778;48.792;9.260;2023-02-28T04:00:47;4.47;;;2.78;;
15356;SDS011;7778;48.792;9.260;2023-02-28T04:03:37;5.43;;;2.47;;
15356;SDS011;7778;48.792;9.260;2023-02-28T04:06:23;4.68;;;2.38;;
15356;SDS011;7778;48.792;9.260;2023-02-28T04:09:11;4.82;;;2.70;;
15356;SDS011;7778;48.792;9.260;2023-02-28T04:11:58;3.60;;;2.75;;
15356;SDS011;7778;48.792;9.260;2023-02-28T04:14:46;1.33;;;1.23;;
15356;SDS011;7778;48.792;9.260;2023-02-28T04:17:31;2.88;;;2.33;;
15356;SDS011;7778;48.792;9.260;2023-02-28T04:20:17;4.65;;;2.63;;
15356;SDS011;7778;48.792;9.260;2023-02-28T04:23:03;7.60;;;3.17;;
15356;SDS011;7778;48.792;9.260;2023-02-28T04:25:49;5.43;;;2.83;;
15356;SDS011;7778;48.792;9.260;2023-02-28T04:28:36;4.28;;;3.10;;
15356;SDS011;7778;48.792;9.260;2023-02-28T04:31:23;3.13;;;2.53;;
15356;SDS011;7778;48.792;9.260;2023-02-28T04:34:09;4.47;;;2.63;;
15356;SDS011;7778;48.792;9.260;2023-02-28T04:36:55;1.98;;;1.48;;
15356;SDS011;7778;48.792;9.260;2023-02-28T04:39:41;5.45;;;3.03;;
15356;SDS011;7778;48.792;9.260;2023-02-28T04:42:27;3.33;;;2.35;;
15356;SDS011;7778;48.792;9.260;2023-02-28T04:45:18;3.08;;;2.15;;
15356;SDS011;7778;48.792;9.260;2023-02-28T04:48:05;3.78;;;2.53;;
15356;SDS011;7778;48.792;9.260;2023-02-28T04:50:51;5.30;;;2.42;;
15356;SDS011;7778;48.792;9.260;2023-02-28T04:53:37;4.03;;;2.70;;
15356;SDS011;7778;48.792;9.260;2023-02-28T04:56:24;6.07;;;2.55;;
15356;SDS011;7778;48.792;9.260;2023-02-28T04:59:10;3.53;;;1.58;;
15356;SDS011;7778;48.792;9.260;2023-02-28T05:01:56;5.43;;;2.90;;
15356;SDS011;7778;48.792;9.260;2023-02-28T05:04:42;4.15;;;2.53;;
15356;SDS011;7778;48.792;9.260;2023-02-28T05:07:28;5.35;;;2.42;;
15356;SDS011;7778;48.792;9.260;2023-02-28T05:10:13;4.93;;;3.30;;
15356;SDS011;7778;48.792;9.260;2023-02-28T05:12:59;5.00;;;2.95;;
15356;SDS011;7778;48.792;9.260;2023-02-28T05:15:44;2.33;;;1.65;;
15356;SDS011;7778;48.792;9.260;2023-02-28T05:18:30;8.48;;;1.75;;
15356;SDS011;7778;48.792;9.260;2023-02-28T05:21:22;4.72;;;2.60;;
15356;SDS011;7778;48.792;9.260;2023-02-28T05:24:12;7.07;;;3.17;;
15356;SDS011;7778;48.792;9.260;2023-02-28T05:26:57;2.03;;;1.85;;
15356;SDS011;7778;48.792;9.260;2023-02-28T05:29:43;9.25;;;3.03;;
15356;SDS011;7778;48.792;9.260;2023-02-28T05:32:28;5.22;;;3.25;;
15356;SDS011;7778;48.792;9.260;2023-02-28T05:35:14;5.13;;;2.45;;
15356;SDS011;7778;48.792;9.260;2023-02-28T05:38:01;4.30;;;2.40;;
15356;SDS011;7778;48.792;9.260;2023-02-28T05:40:47;6.15;;;2.67;;
15356;SDS011;7778;48.792;9.260;2023-02-28T05:43:33;5.57;;;3.25;;
15356;SDS011;7778;48.792;9.260;2023-02-28T05:46:19;9.70;;;3.58;;
15356;SDS011;7778;48.792;9.260;2023-02-28T05:49:04;4.70;;;3.15;;
15356;SDS011;7778;48.792;9.260;2023-02-28T05:51:50;4.60;;;2.55;;
15356;SDS011;7778;48.792;9.260;2023-02-28T05:54:37;3.92;;;2.60;;
15356;SDS011;7778;48.792;9.260;2023-02-28T05:57:23;5.00;;;3.38;;
15356;SDS011;7778;48.792;9.260;2023-02-28T06:00:09;6.13;;;2.97;;
15356;SDS011;7778;48.792;9.260;2023-02-28T06:02:58;6.90;;;3.15;;
15356;SDS011;7778;48.792;9.260;2023-02-28T06:05:45;10.50;;;3.15;;
15356;SDS011;7778;48.792;9.260;2023-02-28T06:08:31;9.30;;;2.92;;
15356;SDS011;7778;48.792;9.260;2023-02-28T06:11:18;6.05;;;3.05;;
15356;SDS011;7778;48.792;9.260;2023-02-28T06:14:04;6.90;;;3.55;;
15356;SDS011;7778;48.792;9.260;2023-02-28T06:16:50;4.72;;;3.17;;
15356;SDS011;7778;48.792;9.260;2023-02-28T06:19:36;5.38;;;3.63;;
15356;SDS011;7778;48.792;9.260;2023-02-28T06:22:23;6.28;;;3.05;;
15356;SDS011;7778;48.792;9.260;2023-02-28T06:25:09;8.52;;;3.85;;
15356;SDS011;7778;48.792;9.260;2023-02-28T06:27:56;7.70;;;3.10;;
15356;SDS011;7778;48.792;9.260;2023-02-28T06:30:42;5.32;;;2.92;;
15356;SDS011;7778;48.792;9.260;2023-02-28T06:33:28;5.88;;;3.40;;
15356;SDS011;7778;48.792;9.260;2023-02-28T06:36:14;5.80;;;3.85;;
15356;SDS011;7778;48.792;9.260;2023-02-28T06:39:00;3.50;;;2.92;;
15356;SDS011;7778;48.792;9.260;2023-02-28T06:41:46;4.25;;;2.65;;
15356;SDS011;7778;48.792;9.260;2023-02-28T06:44:33;1.80;;;1.45;;
15356;SDS011;7778;48.792;9.260;2023-02-28T06:47:19;9.32;;;3.33;;
15356;SDS011;7778;48.792;9.260;2023-02-28T06:50:05;7.25;;;3.42;;
15356;SDS011;7778;48.792;9.260;2023-02-28T06:52:53;9.13;;;3.97;;
15356;SDS011;7778;48.792;9.260;2023-02-28T06:55:39;9.95;;;4.13;;
15356;SDS011;7778;48.792;9.260;2023-02-28T06:58:25;5.97;;;2.67;;
15356;SDS011;7778;48.792;9.260;2023-02-28T07:01:12;7.97;;;3.97;;
15356;SDS011;7778;48.792;9.260;2023-02-28T07:03:59;7.15;;;3.55;;
15356;SDS011;7778;48.792;9.260;2023-02-28T07:06:45;6.10;;;3.83;;
15356;SDS011;7778;48.792;9.260;2023-02-28T07:09:30;5.78;;;2.97;;
15356;SDS011;7778;48.792;9.260;2023-02-28T07:12:16;6.30;;;3.50;;
15356;SDS011;7778;48.792;9.260;2023-02-28T07:15:01;3.05;;;1.52;;
15356;SDS011;7778;48.792;9.260;2023-02-28T07:17:48;7.95;;;3.28;;
15356;SDS011;7778;48.792;9.260;2023-02-28T07:20:34;7.35;;;4.22;;
15356;SDS011;7778;48.792;9.260;2023-02-28T07:23:20;6.78;;;3.35;;
15356;SDS011;7778;48.792;9.260;2023-02-28T07:26:06;6.43;;;3.42;;
15356;SDS011;7778;48.792;9.260;2023-02-28T07:28:58;7.22;;;3.13;;
15356;SDS011;7778;48.792;9.260;2023-02-28T07:31:43;5.18;;;2.47;;
15356;SDS011;7778;48.792;9.260;2023-02-28T07:34:31;5.68;;;3.63;;
15356;SDS011;7778;48.792;9.260;2023-02-28T07:37:16;4.93;;;2.85;;
15356;SDS011;7778;48.792;9.260;2023-02-28T07:40:02;11.65;;;4.00;;
15356;SDS011;7778;48.792;9.260;2023-02-28T07:42:52;4.40;;;3.00;;
15356;SDS011;7778;48.792;9.260;2023-02-28T07:45:38;7.28;;;3.67;;
15356;SDS011;7778;48.792;9.260;2023-02-28T07:48:23;5.50;;;3.40;;
15356;SDS011;7778;48.792;9.260;2023-02-28T07:51:10;7.15;;;3.50;;
15356;SDS011;7778;48.792;9.260;2023-02-28T07:53:56;7.00;;;3.88;;
15356;SDS011;7778;48.792;9.260;2023-02-28T07:56:42;3.40;;;1.10;;
15356;SDS011;7778;48.792;9.260;2023-02-28T07:59:27;9.38;;;3.92;;
15356;SDS011;7778;48.792;9.260;2023-02-28T08:02:13;7.70;;;3.88;;
15356;SDS011;7778;48.792;9.260;2023-02-28T08:05:00;6.47;;;2.42;;
15356;SDS011;7778;48.792;9.260;2023-02-28T08:07:48;7.30;;;3.70;;
15356;SDS011;7778;48.792;9.260;2023-02-28T08:10:34;3.25;;;2.47;;
15356;SDS011;7778;48.792;9.260;2023-02-28T08:13:21;8.88;;;4.28;;
15356;SDS011;7778;48.792;9.260;2023-02-28T08:16:07;5.85;;;3.75;;
15356;SDS011;7778;48.792;9.260;2023-02-28T08:18:53;8.15;;;3.88;;
15356;SDS011;7778;48.792;9.260;2023-02-28T08:21:39;3.92;;;2.28;;
15356;SDS011;7778;48.792;9.260;2023-02-28T08:24:26;6.20;;;3.22;;
15356;SDS011;7778;48.792;9.260;2023-02-28T08:27:12;4.90;;;3.08;;
15356;SDS011;7778;48.792;9.260;2023-02-28T08:29:58;7.88;;;4.47;;
15356;SDS011;7778;48.792;9.260;2023-02-28T08:32:44;3.85;;;2.63;;
15356;SDS011;7778;48.792;9.260;2023-02-28T08:35:29;5.78;;;3.35;;
15356;SDS011;7778;48.792;9.260;2023-02-28T08:38:15;3.75;;;2.63;;
15356;SDS011;7778;48.792;9.260;2023-02-28T08:41:02;7.82;;;4.72;;
15356;SDS011;7778;48.792;9.260;2023-02-28T08:43:51;8.93;;;3.08;;
15356;SDS011;7778;48.792;9.260;2023-02-28T08:46:37;12.18;;;4.55;;
15356;SDS011;7778;48.792;9.260;2023-02-28T08:49:23;7.43;;;3.97;;
15356;SDS011;7778;48.792;9.260;2023-02-28T08:52:09;5.60;;;3.35;;
15356;SDS011;7778;48.792;9.260;2023-02-28T08:54:54;8.27;;;4.65;;
15356;SDS011;7778;48.792;9.260;2023-02-28T08:57:41;6.60;;;3.63;;
15356;SDS011;7778;48.792;9.260;2023-02-28T09:00:27;10.10;;;4.50;;
15356;SDS011;7778;48.792;9.260;2023-02-28T09:03:13;5.93;;;4.07;;
15356;SDS011;7778;48.792;9.260;2023-02-28T09:05:59;8.02;;;4.15;;
15356;SDS011;7778;48.792;9.260;2023-02-28T09:08:46;5.90;;;2.97;;
15356;SDS011;7778;48.792;9.260;2023-02-28T09:11:32;11.18;;;5.10;;
15356;SDS011;7778;48.792;9.260;2023-02-28T09:14:19;7.28;;;4.40;;
15356;SDS011;7778;48.792;9.260;2023-02-28T09:17:05;8.50;;;4.75;;
15356;SDS011;7778;48.792;9.260;2023-02-28T09:19:50;6.00;;;3.15;;
15356;SDS011;7778;48.792;9.260;2023-02-28T09:22:36;6.05;;;4.05;;
15356;SDS011;7778;48.792;9.260;2023-02-28T09:25:21;8.38;;;4.25;;
15356;SDS011;7778;48.792;9.260;2023-02-28T09:28:07;13.32;;;5.57;;
15356;SDS011;7778;48.792;9.260;2023-02-28T09:30:54;8.45;;;3.88;;
15356;SDS011;7778;48.792;9.260;2023-02-28T09:33:40;10.52;;;5.35;;
15356;SDS011;7778;48.792;9.260;2023-02-28T09:36:27;6.82;;;4.15;;
15356;SDS011;7778;48.792;9.260;2023-02-28T09:39:13;11.65;;;5.28;;
15356;SDS011;7778;48.792;9.260;2023-02-28T09:41:59;8.98;;;4.95;;
15356;SDS011;7778;48.792;9.260;2023-02-28T09:44:47;13.50;;;4.53;;
15356;SDS011;7778;48.792;9.260;2023-02-28T09:47:37;6.22;;;3.90;;
15356;SDS011;7778;48.792;9.260;2023-02-28T09:50:29;7.15;;;3.70;;
15356;SDS011;7778;48.792;9.260;2023-02-28T09:53:19;4.20;;;3.25;;
15356;SDS011;7778;48.792;9.260;2023-02-28T09:56:13;2.85;;;2.28;;
15356;SDS011;7778;48.792;9.260;2023-02-28T09:59:13;10.27;;;4.30;;
15356;SDS011;7778;48.792;9.260;2023-02-28T10:02:14;3.67;;;2.00;;
15356;SDS011;7778;48.792;9.260;2023-02-28T10:05:28;8.45;;;4.25;;
15356;SDS011;7778;48.792;9.260;2023-02-28T10:08:19;10.32;;;5.07;;
15356;SDS011;7778;48.792;9.260;2023-02-28T10:11:10;11.45;;;5.40;;
15356;SDS011;7778;48.792;9.260;2023-02-28T10:14:00;6.35;;;3.20;;
15356;SDS011;7778;48.792;9.260;2023-02-28T10:16:52;4.57;;;3.13;;
15356;SDS011;7778;48.792;9.260;2023-02-28T10:19:42;8.48;;;3.90;;
15356;SDS011;7778;48.792;9.260;2023-02-28T10:22:36;7.50;;;4.18;;
15356;SDS011;7778;48.792;9.260;2023-02-28T10:25:28;9.30;;;5.10;;
15356;SDS011;7778;48.792;9.260;2023-02-28T10:28:15;8.02;;;4.90;;
15356;SDS011;7778;48.792;9.260;2023-02-28T10:31:03;7.55;;;4.28;;
15356;SDS011;7778;48.792;9.260;2023-02-28T10:33:48;8.77;;;5.20;;
15356;SDS011;7778;48.792;9.260;2023-02-28T10:36:34;7.50;;;3.20;;
15356;SDS011;7778;48.792;9.260;2023-02-28T10:39:38;10.55;;;5.53;;
15356;SDS011;7778;48.792;9.260;2023-02-28T10:42:27;4.07;;;2.85;;
15356;SDS011;7778;48.792;9.260;2023-02-28T10:45:14;7.20;;;4.30;;
15356;SDS011;7778;48.792;9.260;2023-02-28T10:48:02;5.57;;;3.10;;
15356;SDS011;7778;48.792;9.260;2023-02-28T10:51:08;9.35;;;4.90;;
15356;SDS011;7778;48.792;9.260;2023-02-28T10:53:56;12.13;;;4.85;;
15356;SDS011;7778;48.792;9.260;2023-02-28T10:56:44;9.73;;;5.40;;
15356;SDS011;7778;48.792;9.260;2023-02-28T10:59:30;7.47;;;4.47;;
15356;SDS011;7778;48.792;9.260;2023-02-28T11:02:30;7.55;;;4.43;;
15356;SDS011;7778;48.792;9.260;2023-02-28T11:05:23;8.98;;;5.35;;
15356;SDS011;7778;48.792;9.260;2023-02-28T11:08:12;7.40;;;4.53;;
15356;SDS011;7778;48.792;9.260;2023-02-28T11:11:03;4.53;;;3.22;;
15356;SDS011;7778;48.792;9.260;2023-02-28T11:13:53;9.48;;;5.07;;
15356;SDS011;7778;48.792;9.260;2023-02-28T11:16:41;5.95;;;3.35;;
15356;SDS011;7778;48.792;9.260;2023-02-28T11:19:28;1.55;;;1.45;;
15356;SDS011;7778;48.792;9.260;2023-02-28T11:22:21;9.90;;;4.80;;
15356;SDS011;7778;48.792;9.260;2023-02-28T11:25:16;6.43;;;3.55;;
15356;SDS011;7778;48.792;9.260;2023-02-28T11:28:22;9.85;;;5.20;;
15356;SDS011;7778;48.792;9.260;2023-02-28T11:31:17;7.82;;;3.47;;
15356;SDS011;7778;48.792;9.260;2023-02-28T11:37:11;6.15;;;3.17;;
15356;SDS011;7778;48.792;9.260;2023-02-28T11:39:58;8.27;;;4.03;;
15356;SDS011;7778;48.792;9.260;2023-02-28T11:42:47;11.57;;;6.38;;
15356;SDS011;7778;48.792;9.260;2023-02-28T11:45:58;9.85;;;5.43;;
15356;SDS011;7778;48.792;9.260;2023-02-28T11:49:01;9.55;;;5.72;;
15356;SDS011;7778;48.792;9.260;2023-02-28T11:51:57;8.02;;;4.50;;
15356;SDS011;7778;48.792;9.260;2023-02-28T11:54:54;9.13;;;5.13;;
15356;SDS011;7778;48.792;9.260;2023-02-28T11:58:01;11.05;;;5.03;;
15356;SDS011;7778;48.792;9.260;2023-02-28T12:01:19;7.05;;;3.88;;
15356;SDS011;7778;48.792;9.260;2023-02-28T12:04:21;8.20;;;5.38;;
15356;SDS011;7778;48.792;9.260;2023-02-28T12:07:13;13.18;;;5.80;;
15356;SDS011;7778;48.792;9.260;2023-02-28T12:10:05;7.50;;;4.72;;
15356;SDS011;7778;48.792;9.260;2023-02-28T12:13:08;10.18;;;5.35;;
15356;SDS011;7778;48.792;9.260;2023-02-28T12:19:25;9.30;;;4.88;;
15356;SDS011;7778;48.792;9.260;2023-02-28T12:22:22;6.70;;;4.35;;
15356;SDS011;7778;48.792;9.260;2023-02-28T12:25:22;8.45;;;4.82;;
15356;SDS011;7778;48.792;9.260;2023-02-28T12:28:33;9.55;;;5.28;;
15356;SDS011;7778;48.792;9.260;2023-02-28T12:31:24;7.63;;;4.30;;
15356;SDS011;7778;48.792;9.260;2023-02-28T12:34:15;7.65;;;5.60;;
15356;SDS011;7778;48.792;9.260;2023-02-28T12:37:07;8.18;;;4.38;;
15356;SDS011;7778;48.792;9.260;2023-02-28T12:40:02;6.20;;;3.60;;
15356;SDS011;7778;48.792;9.260;2023-02-28T12:42:55;8.82;;;4.10;;
15356;SDS011;7778;48.792;9.260;2023-02-28T12:45:46;7.32;;;4.47;;
15356;SDS011;7778;48.792;9.260;2023-02-28T12:48:37;4.95;;;3.40;;
15356;SDS011;7778;48.792;9.260;2023-02-28T12:51:27;13.02;;;5.40;;
15356;SDS011;7778;48.792;9.260;2023-02-28T12:54:16;8.20;;;4.38;;
15356;SDS011;7778;48.792;9.260;2023-02-28T12:57:11;7.30;;;4.38;;
15356;SDS011;7778;48.792;9.260;2023-02-28T13:00:02;8.07;;;4.88;;
15356;SDS011;7778;48.792;9.260;2023-02-28T13:06:21;8.57;;;3.65;;
15356;SDS011;7778;48.792;9.260;2023-02-28T13:09:26;9.55;;;4.80;;
15356;SDS011;7778;48.792;9.260;2023-02-28T13:12:13;19.38;;;8.73;;
15356;SDS011;7778;48.792;9.260;2023-02-28T13:15:02;9.60;;;5.65;;
15356;SDS011;7778;48.792;9.260;2023-02-28T13:17:56;14.60;;;5.15;;
15356;SDS011;7778;48.792;9.260;2023-02-28T13:20:47;6.43;;;3.83;;
15356;SDS011;7778;48.792;9.260;2023-02-28T13:23:56;9.60;;;4.10;;
15356;SDS011;7778;48.792;9.260;2023-02-28T13:34:05;14.63;;;5.20;;
15356;SDS011;7778;48.792;9.260;2023-02-28T13:40:27;12.20;;;5.65;;
15356;SDS011;7778;48.792;9.260;2023-02-28T13:43:23;8.77;;;4.57;;
15356;SDS011;7778;48.792;9.260;2023-02-28T13:53:30;6.70;;;4.03;;
15356;SDS011;7778;48.792;9.260;2023-02-28T13:56:41;7.32;;;4.55;;
15356;SDS011;7778;48.792;9.260;2023-02-28T13:59:37;7.32;;;4.85;;
15356;SDS011;7778;48.792;9.260;2023-02-28T14:06:18;9.32;;;5.13;;
15356;SDS011;7778;48.792;9.260;2023-02-28T14:09:16;9.23;;;5.25;;
15356;SDS011;7778;48.792;9.260;2023-02-28T14:15:45;4.68;;;3.28;;
15356;SDS011;7778;48.792;9.260;2023-02-28T14:18:36;11.32;;;4.20;;
15356;SDS011;7778;48.792;9.260;2023-02-28T14:21:26;6.43;;;4.20;;
15356;SDS011;7778;48.792;9.260;2023-02-28T14:24:23;7.88;;;4.53;;
15356;SDS011;7778;48.792;9.260;2023-02-28T14:27:43;7.75;;;4.43;;
15356;SDS011;7778;48.792;9.260;2023-02-28T14:30:50;6.32;;;4.50;;
15356;SDS011;7778;48.792;9.260;2023-02-28T14:33:54;6.93;;;3.00;;
15356;SDS011;7778;48.792;9.260;2023-02-28T14:36:55;6.30;;;3.83;;
15356;SDS011;7778;48.792;9.260;2023-02-28T14:39:45;4.57;;;2.75;;
15356;SDS011;7778;48.792;9.260;2023-02-28T14:42:33;10.90;;;5.65;;
15356;SDS011;7778;48.792;9.260;2023-02-28T14:45:22;8.88;;;4.72;;
15356;SDS011;7778;48.792;9.260;2023-02-28T14:48:10;7.13;;;3.42;;
15356;SDS011;7778;48.792;9.260;2023-02-28T14:50:56;19.33;;;8.23;;
15356;SDS011;7778;48.792;9.260;2023-02-28T14:53:44;13.88;;;5.93;;
15356;SDS011;7778;48.792;9.260;2023-02-28T14:56:34;7.00;;;4.72;;
15356;SDS011;7778;48.792;9.260;2023-02-28T14:59:23;8.52;;;4.93;;
15356;SDS011;7778;48.792;9.260;2023-02-28T15:02:17;14.63;;;6.53;;
15356;SDS011;7778;48.792;9.260;2023-02-28T15:05:21;9.80;;;4.20;;
15356;SDS011;7778;48.792;9.260;2023-02-28T15:08:11;14.40;;;6.82;;
15356;SDS011;7778;48.792;9.260;2023-02-28T15:11:00;25.77;;;9.68;;
15356;SDS011;7778;48.792;9.260;2023-02-28T15:16:32;8.57;;;4.85;;
15356;SDS011;7778;48.792;9.260;2023-02-28T15:19:22;9.32;;;3.40;;
15356;SDS011;7778;48.792;9.260;2023-02-28T15:22:17;7.80;;;4.22;;
15356;SDS011;7778;48.792;9.260;2023-02-28T15:25:13;9.65;;;2.92;;
15356;SDS011;7778;48.792;9.260;2023-02-28T15:28:03;11.38;;;5.32;;
15356;SDS011;7778;48.792;9.260;2023-02-28T15:30:54;5.55;;;3.40;;
15356;SDS011;7778;48.792;9.260;2023-02-28T15:33:51;9.00;;;5.03;;
15356;SDS011;7778;48.792;9.260;2023-02-28T15:36:39;11.75;;;5.82;;
15356;SDS011;7778;48.792;9.260;2023-02-28T15:39:27;15.45;;;6.03;;
15356;SDS011;7778;48.792;9.260;2023-02-28T15:48:31;5.18;;;3.25;;
15356;SDS011;7778;48.792;9.260;2023-02-28T15:51:21;5.55;;;3.83;;
15356;SDS011;7778;48.792;9.260;2023-02-28T15:54:12;11.27;;;5.25;;
15356;SDS011;7778;48.792;9.260;2023-02-28T15:57:06;6.50;;;3.28;;
15356;SDS011;7778;48.792;9.260;2023-02-28T16:00:00;7.95;;;4.68;;
15356;SDS011;7778;48.792;9.260;2023-02-28T16:02:49;7.45;;;3.80;;
15356;SDS011;7778;48.792;9.260;2023-02-28T16:05:36;6.63;;;4.43;;
15356;SDS011;7778;48.792;9.260;2023-02-28T16:08:21;9.45;;;5.47;;
15356;SDS011;7778;48.792;9.260;2023-02-28T16:14:24;10.63;;;4.95;;
15356;SDS011;7778;48.792;9.260;2023-02-28T16:17:15;3.97;;;3.05;;
15356;SDS011;7778;48.792;9.260;2023-02-28T16:20:12;10.23;;;5.80;;
15356;SDS011;7778;48.792;9.260;2023-02-28T16:25:41;9.43;;;5.18;;
15356;SDS011;7778;48.792;9.260;2023-02-28T16:28:30;8.15;;;4.90;;
15356;SDS011;7778;48.792;9.260;2023-02-28T16:31:20;9.27;;;3.45;;
15356;SDS011;7778;48.792;9.260;2023-02-28T16:34:06;11.25;;;5.47;;
15356;SDS011;7778;48.792;9.260;2023-02-28T16:36:52;10.60;;;6.05;;
15356;SDS011;7778;48.792;9.260;2023-02-28T16:39:38;11.38;;;6.00;;
15356;SDS011;7778;48.792;9.260;2023-02-28T16:42:25;8.57;;;4.55;;
15356;SDS011;7778;48.792;9.260;2023-02-28T16:45:21;9.07;;;3.97;;
15356;SDS011;7778;48.792;9.260;2023-02-28T16:48:12;10.00;;;5.22;;
15356;SDS011;7778;48.792;9.260;2023-02-28T16:51:00;9.80;;;5.40;;
15356;SDS011;7778;48.792;9.260;2023-02-28T16:53:48;7.25;;;4.32;;
15356;SDS011;7778;48.792;9.260;2023-02-28T16:56:33;9.38;;;4.20;;
15356;SDS011;7778;48.792;9.260;2023-02-28T16:59:21;10.07;;;5.40;;
15356;SDS011;7778;48.792;9.260;2023-02-28T17:02:09;11.13;;;6.05;;
15356;SDS011;7778;48.792;9.260;2023-02-28T17:04:59;16.23;;;7.55;;
15356;SDS011;7778;48.792;9.260;2023-02-28T17:07:45;11.15;;;6.32;;
15356;SDS011;7778;48.792;9.260;2023-02-28T17:10:32;12.13;;;5.88;;
15356;SDS011;7778;48.792;9.260;2023-02-28T17:13:17;9.13;;;4.85;;
15356;SDS011;7778;48.792;9.260;2023-02-28T17:16:03;8.75;;;5.00;;
15356;SDS011;7778;48.792;9.260;2023-02-28T17:18:50;11.27;;;6.25;;
15356;SDS011;7778;48.792;9.260;2023-02-28T17:21:37;19.05;;;5.97;;
15356;SDS011;7778;48.792;9.260;2023-02-28T17:24:25;10.68;;;5.80;;
15356;SDS011;7778;48.792;9.260;2023-02-28T17:27:11;12.25;;;5.15;;
15356;SDS011;7778;48.792;9.260;2023-02-28T17:29:57;11.50;;;6.10;;
15356;SDS011;7778;48.792;9.260;2023-02-28T17:32:43;9.88;;;5.30;;
15356;SDS011;7778;48.792;9.260;2023-02-28T17:35:29;11.40;;;5.95;;
15356;SDS011;7778;48.792;9.260;2023-02-28T17:38:19;7.95;;;4.70;;
15356;SDS011;7778;48.792;9.260;2023-02-28T17:41:07;11.85;;;5.10;;
15356;SDS011;7778;48.792;9.260;2023-02-28T17:43:54;12.88;;;4.60;;
15356;SDS011;7778;48.792;9.260;2023-02-28T17:46:40;11.60;;;6.13;;
15356;SDS011;7778;48.792;9.260;2023-02-28T17:49:28;7.55;;;4.03;;
15356;SDS011;7778;48.792;9.260;2023-02-28T17:52:14;12.85;;;6.93;;
15356;SDS011;7778;48.792;9.260;2023-02-28T17:55:01;16.42;;;8.23;;
15356;SDS011;7778;48.792;9.260;2023-02-28T17:57:47;13.77;;;6.53;;
15356;SDS011;7778;48.792;9.260;2023-02-28T18:00:36;12.13;;;6.43;;
15356;SDS011;7778;48.792;9.260;2023-02-28T18:03:30;11.48;;;5.75;;
15356;SDS011;7778;48.792;9.260;2023-02-28T18:09:04;17.02;;;8.65;;
15356;SDS011;7778;48.792;9.260;2023-02-28T18:11:52;14.18;;;7.50;;
15356;SDS011;7778;48.792;9.260;2023-02-28T18:14:40;11.10;;;6.32;;
15356;SDS011;7778;48.792;9.260;2023-02-28T18:17:26;11.07;;;6.50;;